Date,TemperatureHighF,TemperatureAvgF,TemperatureLowF,DewpointHighF,DewpointAvgF,DewpointLowF,HumidityHigh,HumidityAvg,HumidityLow,PressureMaxIn,PressureMinIn,WindSpeedMaxMPH,WindSpeedAvgMPH,GustSpeedMaxMPH,PrecipitationSumIn
2013-1-1,35.0,29.8,17.0,24.0,12.7,0.0,68,49,34,0.00,40.00,18,6,27,0.00
2013-1-2,27.0,17.4,7.0,13.0,3.4,-10.0,71,54,43,0.00,40.00,14,4,24,0.00
2013-1-3,24.0,11.7,2.0,5.0,-5.4,-10.0,73,47,24,0.00,40.00,9,3,16,0.00
2013-1-4,37.0,26.3,10.0,22.0,15.7,4.0,89,65,48,0.00,40.00,9,3,21,0.00
2013-1-5,40.0,32.4,20.0,21.0,17.3,13.0,80,54,35,0.00,40.00,14,3,22,0.00
2013-1-6,42.0,30.4,20.0,26.0,23.0,16.0,91,74,50,0.00,40.00,11,2,16,0.03
2013-1-7,36.0,29.2,18.0,28.0,19.0,11.0,90,67,38,0.00,40.00,9,2,20,0.00
2013-1-8,44.0,30.4,17.0,25.0,21.4,15.0,94,71,41,0.00,40.00,9,2,17,0.00
2013-1-9,44.0,33.3,20.0,33.0,25.3,19.0,95,74,48,0.00,40.00,11,2,27,0.00
2013-1-10,45.0,40.4,29.0,26.0,22.0,19.0,73,48,37,0.00,40.00,20,7,35,0.00
2013-1-11,40.0,32.8,24.0,36.0,26.6,21.0,98,78,58,0.00,40.00,5,1,7,0.10
2013-1-12,42.0,39.1,36.0,41.0,38.6,36.0,98,98,98,0.00,40.00,6,1,9,0.00
2013-1-13,50.0,44.6,39.0,49.0,44.1,39.0,98,98,98,0.00,40.00,6,2,10,0.00
2013-1-14,61.0,50.3,40.0,51.0,40.1,22.0,98,72,34,0.00,40.00,15,4,24,0.00
2013-1-15,41.0,36.1,30.0,26.0,22.5,21.0,75,58,45,0.00,40.00,5,1,11,0.00
2013-1-16,32.0,31.1,28.0,32.0,28.7,22.0,98,91,67,0.00,40.00,4,1,6,0.58
2013-1-17,42.0,32.8,27.0,33.0,23.8,3.0,98,72,39,0.00,40.00,10,3,19,0.00
2013-1-18,27.0,19.5,13.0,6.0,-3.1,-9.0,52,36,24,0.00,40.00,13,4,24,0.00
2013-1-19,46.0,34.3,18.0,29.0,17.1,3.0,73,49,35,0.00,40.00,12,4,25,0.00
2013-1-20,53.0,39.7,28.0,30.0,21.4,6.0,71,49,24,0.00,40.00,17,8,33,0.00
2013-1-21,28.0,23.8,19.0,20.0,6.0,-2.0,92,49,32,0.00,40.00,16,4,30,0.05
2013-1-22,23.0,18.9,11.0,20.0,6.8,-7.0,93,62,27,0.00,40.00,12,5,22,0.00
2013-1-23,14.0,8.6,3.0,0.0,-12.9,-18.0,63,37,22,0.00,40.00,16,5,29,0.00
2013-1-24,17.0,8.0,-1.0,-12.0,-14.9,-16.0,52,35,22,0.00,40.00,15,7,37,0.00
2013-1-25,22.0,14.0,6.0,5.0,-10.5,-15.0,60,32,21,0.00,40.00,18,6,32,0.00
2013-1-26,22.0,15.6,10.0,10.0,-0.5,-13.0,84,52,24,0.00,40.00,14,4,26,0.00
2013-1-27,30.0,19.4,12.0,0.0,-3.7,-7.0,58,37,19,0.00,40.00,14,6,27,0.00
2013-1-28,30.0,23.0,17.0,23.0,8.2,-6.0,96,58,28,0.00,40.00,6,2,11,0.31
2013-1-29,35.0,29.1,23.0,31.0,26.0,22.0,97,88,74,0.00,40.00,4,1,9,0.00
2013-1-30,60.0,44.0,32.0,57.0,43.1,31.0,98,96,89,0.00,40.00,11,3,26,0.30
2013-1-31,59.0,40.6,29.0,57.0,23.9,11.0,98,53,33,0.00,40.00,24,12,45,0.01